Terminal Aerodrome Forecast
Issued by NWS

Home | Current Version | Previous Version | Text Only | Print | Product List | Glossary On
Versions: 1 2 3 4 5 6 7 8 9 10 11 12 13 14 15 16 17
000
FTUS41 KCAR 280500
TAFFVE
TAF
KFVE 280533Z 2806/2906 17007KT P6SM OVC003
      TEMPO 2806/2810 4SM BR
     FM281400 16005KT P6SM BKN008
     FM281600 15005KT P6SM BKN015
     FM281800 15006KT P6SM -SHRA OVC025
     FM282200 11006KT 6SM -SHRA OVC020
     FM290100 10008KT 5SM -SHRA BR OVC012
     FM290300 12008KT 3SM -SHRA BR OVC005=

USA.gov is the U.S. government's official web portal to all federal, state and local government web resources and services.